createdAt,value
2016-12-17T00:00:07.999Z,971.54
2016-12-17T00:01:07.743Z,971.53
2016-12-17T00:02:08.604Z,971.49
2016-12-17T00:03:08.282Z,971.54
2016-12-17T00:04:07.926Z,971.54
2016-12-17T00:05:07.651Z,971.51
2016-12-17T00:06:08.458Z,971.54
2016-12-17T00:07:08.193Z,971.54
2016-12-17T00:08:07.894Z,971.53
2016-12-17T00:09:07.719Z,971.52
2016-12-17T00:10:08.438Z,971.55
2016-12-17T00:11:08.211Z,971.51
2016-12-17T00:12:07.746Z,971.55
2016-12-17T00:13:08.448Z,971.52
2016-12-17T00:14:08.055Z,971.50
2016-12-17T00:15:07.801Z,971.54
2016-12-17T00:16:07.707Z,971.56
2016-12-17T00:17:08.363Z,971.54
2016-12-17T00:18:08.043Z,971.53
2016-12-17T00:19:07.763Z,971.49
2016-12-17T00:20:07.591Z,971.51
2016-12-17T00:21:08.272Z,971.53
2016-12-17T00:22:08.076Z,971.51
2016-12-17T00:23:07.743Z,971.53
2016-12-17T00:24:08.259Z,971.53
2016-12-17T00:25:08.027Z,971.48
2016-12-17T00:26:07.813Z,971.51
2016-12-17T00:27:08.540Z,971.52
2016-12-17T00:28:08.214Z,971.50
2016-12-17T00:29:07.897Z,971.52
2016-12-17T00:30:07.715Z,971.51
2016-12-17T00:31:08.368Z,971.50
2016-12-17T00:32:08.012Z,971.52
2016-12-17T00:33:07.837Z,971.54
2016-12-17T00:34:07.491Z,971.54
2016-12-17T00:35:08.138Z,971.53
2016-12-17T00:36:07.791Z,971.56
2016-12-17T00:37:07.499Z,971.59
2016-12-17T00:38:08.179Z,971.60
2016-12-17T00:39:07.648Z,971.58
2016-12-17T00:40:08.084Z,971.55
2016-12-17T00:41:07.816Z,971.61
2016-12-17T00:42:07.575Z,971.60
2016-12-17T00:43:08.280Z,971.61
2016-12-17T00:44:07.995Z,971.60
2016-12-17T00:45:07.664Z,971.63
2016-12-17T00:46:08.317Z,971.61
2016-12-17T00:47:08.121Z,971.63
2016-12-17T00:48:08.330Z,971.67
2016-12-17T00:49:09.229Z,971.61
2016-12-17T00:50:07.932Z,971.66
2016-12-17T00:51:07.765Z,971.66
2016-12-17T00:52:07.768Z,971.71
2016-12-17T00:53:07.413Z,971.67
2016-12-17T00:54:08.030Z,971.66
2016-12-17T00:55:07.794Z,971.69
2016-12-17T00:56:07.597Z,971.69
2016-12-17T00:57:08.282Z,971.73
2016-12-17T00:58:08.008Z,971.72
2016-12-17T00:59:07.660Z,971.73
2016-12-17T01:00:08.393Z,971.78
2016-12-17T01:01:08.065Z,971.81
2016-12-17T01:02:07.792Z,971.78
2016-12-17T01:03:07.656Z,971.80
2016-12-17T01:04:08.328Z,971.80
2016-12-17T01:05:08.074Z,971.78
2016-12-17T01:06:07.622Z,971.80
2016-12-17T01:07:08.393Z,971.84
2016-12-17T01:08:08.037Z,971.80
2016-12-17T01:09:08.257Z,971.80
2016-12-17T01:10:07.903Z,971.85
2016-12-17T01:11:07.798Z,971.85
2016-12-17T01:12:07.523Z,971.90
2016-12-17T01:13:08.162Z,971.84
2016-12-17T01:14:07.897Z,971.87
2016-12-17T01:15:07.594Z,971.94
2016-12-17T01:16:08.158Z,971.93
2016-12-17T01:17:08.081Z,971.88
2016-12-17T01:18:07.801Z,971.94
2016-12-17T01:19:07.580Z,971.89
2016-12-17T01:20:08.452Z,971.91
2016-12-17T01:21:08.198Z,971.91
2016-12-17T01:22:07.920Z,971.94
2016-12-17T01:23:08.360Z,971.95
2016-12-17T01:24:08.058Z,971.91
2016-12-17T01:25:07.782Z,971.96
2016-12-17T01:26:07.561Z,971.94
2016-12-17T01:27:08.190Z,971.97
2016-12-17T01:28:07.829Z,971.97
2016-12-17T01:29:07.696Z,971.98
2016-12-17T01:30:08.404Z,971.96
2016-12-17T01:31:08.168Z,971.96
2016-12-17T01:32:07.828Z,971.99
2016-12-17T01:33:07.630Z,971.94
2016-12-17T01:34:08.368Z,971.94
2016-12-17T01:35:08.388Z,972.01
2016-12-17T01:36:07.882Z,971.96
2016-12-17T01:37:08.050Z,972.01
2016-12-17T01:38:07.732Z,972.01
2016-12-17T01:39:07.772Z,972.00
2016-12-17T01:40:07.566Z,971.99
2016-12-17T01:41:08.257Z,971.96
2016-12-17T01:42:07.687Z,972.01
2016-12-17T01:43:08.335Z,972.05
2016-12-17T01:44:07.926Z,972.02
2016-12-17T01:45:07.517Z,972.05
2016-12-17T01:46:08.206Z,972.09
2016-12-17T01:47:07.922Z,972.09
2016-12-17T01:48:07.507Z,972.06
2016-12-17T01:49:08.409Z,972.09
2016-12-17T01:50:08.113Z,972.05
2016-12-17T01:51:07.928Z,972.10
2016-12-17T01:52:07.601Z,972.09
2016-12-17T01:53:08.278Z,972.13
2016-12-17T01:54:14.180Z,972.09
2016-12-17T01:55:07.894Z,972.14
2016-12-17T01:56:07.607Z,972.11
2016-12-17T01:57:08.130Z,972.13
2016-12-17T01:58:07.836Z,972.12
2016-12-17T01:59:07.598Z,972.13
2016-12-17T02:00:08.423Z,972.15
2016-12-17T02:01:08.123Z,972.14
2016-12-17T02:02:07.785Z,972.15
2016-12-17T02:03:07.816Z,972.17
2016-12-17T02:04:07.886Z,972.19
2016-12-17T02:05:07.639Z,972.16
2016-12-17T02:06:08.173Z,972.15
2016-12-17T02:07:08.022Z,972.14
2016-12-17T02:08:07.746Z,972.18
2016-12-17T02:09:07.644Z,972.18
2016-12-17T02:10:08.273Z,972.16
2016-12-17T02:11:07.963Z,972.18
2016-12-17T02:12:07.624Z,972.20
2016-12-17T02:13:08.280Z,972.16
2016-12-17T02:14:07.908Z,972.17
2016-12-17T02:15:07.681Z,972.17
2016-12-17T02:16:08.359Z,972.17
2016-12-17T02:17:08.221Z,972.20
2016-12-17T02:18:08.210Z,972.17
2016-12-17T02:19:07.894Z,972.17
2016-12-17T02:20:08.363Z,972.23
2016-12-17T02:21:07.496Z,972.21
2016-12-17T02:22:08.236Z,972.17
2016-12-17T02:23:08.046Z,972.27
2016-12-17T02:24:08.020Z,972.25
2016-12-17T02:25:07.648Z,972.18
2016-12-17T02:26:08.270Z,972.16
2016-12-17T02:27:07.934Z,972.17
2016-12-17T02:28:07.711Z,972.17
2016-12-17T02:29:08.297Z,972.19
2016-12-17T02:30:07.977Z,972.23
2016-12-17T02:31:08.825Z,972.20
2016-12-17T02:32:07.639Z,972.16
2016-12-17T02:33:08.290Z,972.19
2016-12-17T02:34:07.928Z,972.17
2016-12-17T02:35:07.754Z,972.14
2016-12-17T02:36:07.439Z,972.21
2016-12-17T02:37:07.589Z,972.16
2016-12-17T02:38:08.282Z,972.20
2016-12-17T02:39:07.898Z,972.19
2016-12-17T02:40:07.565Z,972.21
2016-12-17T02:41:08.379Z,972.16
2016-12-17T02:42:08.068Z,972.20
2016-12-17T02:43:07.695Z,972.20
2016-12-17T02:44:08.344Z,972.21
2016-12-17T02:45:08.152Z,972.22
2016-12-17T02:46:07.886Z,972.22
2016-12-17T02:47:07.585Z,972.25
2016-12-17T02:48:08.403Z,972.28
2016-12-17T02:49:08.212Z,972.32
2016-12-17T02:50:07.913Z,972.37
2016-12-17T02:51:07.698Z,972.34
2016-12-17T02:52:08.410Z,972.34
2016-12-17T02:53:08.123Z,972.34
2016-12-17T02:54:07.863Z,972.36
2016-12-17T02:55:07.754Z,972.37
2016-12-17T02:56:07.466Z,972.44
2016-12-17T02:57:08.136Z,972.45
2016-12-17T02:58:07.954Z,972.38
2016-12-17T02:59:07.678Z,972.37
2016-12-17T03:00:08.377Z,972.40
2016-12-17T03:01:08.005Z,972.39
2016-12-17T03:02:07.690Z,972.34
2016-12-17T03:03:08.320Z,972.34
2016-12-17T03:04:08.123Z,972.36
2016-12-17T03:05:07.756Z,972.31
2016-12-17T03:06:07.656Z,972.29
2016-12-17T03:07:07.971Z,972.33
2016-12-17T03:08:07.847Z,972.27
2016-12-17T03:09:07.619Z,972.29
2016-12-17T03:10:08.253Z,972.33
2016-12-17T03:11:07.931Z,972.31
2016-12-17T03:12:07.549Z,972.28
2016-12-17T03:13:08.175Z,972.33
2016-12-17T03:14:07.919Z,972.31
2016-12-17T03:15:07.635Z,972.28
2016-12-17T03:16:08.363Z,972.33
2016-12-17T03:17:08.284Z,972.29
2016-12-17T03:18:07.973Z,972.33
2016-12-17T03:19:07.894Z,972.32
2016-12-17T03:20:07.673Z,972.33
2016-12-17T03:21:08.342Z,972.33
2016-12-17T03:22:08.048Z,972.31
2016-12-17T03:23:07.813Z,972.35
2016-12-17T03:24:07.686Z,972.32
2016-12-17T03:25:08.380Z,972.33
2016-12-17T03:26:08.152Z,972.34
2016-12-17T03:27:07.931Z,972.32
2016-12-17T03:28:07.621Z,972.35
2016-12-17T03:29:08.342Z,972.34
2016-12-17T03:30:08.235Z,972.34
2016-12-17T03:31:08.444Z,972.28
2016-12-17T03:32:08.293Z,972.29
2016-12-17T03:33:07.982Z,972.29
2016-12-17T03:34:07.695Z,972.28
2016-12-17T03:35:08.369Z,972.28
2016-12-17T03:36:08.101Z,972.27
2016-12-17T03:37:07.579Z,972.28
2016-12-17T03:38:08.193Z,972.23
2016-12-17T03:39:07.946Z,972.23
2016-12-17T03:40:07.641Z,972.20
2016-12-17T03:41:09.136Z,972.25
2016-12-17T03:42:07.782Z,972.25
2016-12-17T03:43:07.555Z,972.25
2016-12-17T03:44:08.175Z,972.26
2016-12-17T03:45:08.126Z,972.22
2016-12-17T03:46:07.569Z,972.24
2016-12-17T03:47:07.985Z,972.26
2016-12-17T03:48:07.655Z,972.28
2016-12-17T03:49:08.402Z,972.24
2016-12-17T03:50:08.098Z,972.27
2016-12-17T03:51:07.751Z,972.26
2016-12-17T03:52:08.451Z,972.23
2016-12-17T03:53:08.158Z,972.22
2016-12-17T03:54:07.882Z,972.24
2016-12-17T03:55:07.699Z,972.21
2016-12-17T03:56:08.370Z,972.22
2016-12-17T03:57:08.003Z,972.22
2016-12-17T03:58:07.712Z,972.19
2016-12-17T03:59:08.340Z,972.18
2016-12-17T04:00:08.103Z,972.21
2016-12-17T04:01:07.903Z,972.18
2016-12-17T04:02:07.611Z,972.17
2016-12-17T04:03:08.352Z,972.20
2016-12-17T04:04:08.045Z,972.20
2016-12-17T04:05:07.733Z,972.16
2016-12-17T04:06:08.423Z,972.16
2016-12-17T04:07:08.094Z,972.16
2016-12-17T04:08:07.767Z,972.16
2016-12-17T04:09:07.643Z,972.11
2016-12-17T04:10:08.329Z,972.10
2016-12-17T04:11:08.262Z,972.10
2016-12-17T04:12:07.694Z,972.16
2016-12-17T04:13:08.332Z,972.18
2016-12-17T04:14:07.967Z,972.14
2016-12-17T04:15:07.716Z,972.12
2016-12-17T04:16:08.341Z,972.14
2016-12-17T04:17:08.941Z,972.15
2016-12-17T04:18:08.049Z,972.16
2016-12-17T04:19:07.768Z,972.15
2016-12-17T04:20:07.569Z,972.14
2016-12-17T04:21:08.265Z,972.19
2016-12-17T04:22:07.928Z,972.15
2016-12-17T04:23:07.686Z,972.13
2016-12-17T04:24:08.377Z,972.14
2016-12-17T04:25:08.083Z,972.21
2016-12-17T04:26:07.754Z,972.21
2016-12-17T04:27:08.459Z,972.25
2016-12-17T04:28:07.901Z,972.23
2016-12-17T04:29:08.022Z,972.26
2016-12-17T04:30:07.786Z,972.19
2016-12-17T04:31:07.484Z,972.18
2016-12-17T04:32:08.204Z,972.20
2016-12-17T04:33:08.156Z,972.17
2016-12-17T04:34:08.025Z,972.15
2016-12-17T04:35:07.828Z,972.16
2016-12-17T04:36:07.623Z,972.14
2016-12-17T04:37:09.174Z,972.13
2016-12-17T04:38:08.401Z,972.16
2016-12-17T04:39:08.915Z,972.12
2016-12-17T04:40:07.763Z,972.17
2016-12-17T04:41:08.126Z,972.15
2016-12-17T04:42:08.896Z,972.14
2016-12-17T04:43:07.601Z,972.17
2016-12-17T04:44:08.284Z,972.16
2016-12-17T04:45:07.976Z,972.23
2016-12-17T04:46:07.685Z,972.19
2016-12-17T04:47:08.436Z,972.24
2016-12-17T04:48:08.199Z,972.29
2016-12-17T04:49:07.908Z,972.24
2016-12-17T04:50:07.728Z,972.24
2016-12-17T04:51:08.504Z,972.25
2016-12-17T04:52:08.226Z,972.21
2016-12-17T04:53:07.636Z,972.22
2016-12-17T04:54:08.143Z,972.22
2016-12-17T04:55:07.937Z,972.22
2016-12-17T04:56:07.675Z,972.20
2016-12-17T04:57:08.354Z,972.21
2016-12-17T04:58:08.285Z,972.18
2016-12-17T04:59:08.181Z,972.24
2016-12-17T05:00:08.002Z,972.25
2016-12-17T05:01:07.668Z,972.19
2016-12-17T05:02:08.388Z,972.18
2016-12-17T05:03:08.088Z,972.22
2016-12-17T05:04:08.320Z,972.15
2016-12-17T05:05:08.205Z,972.20
2016-12-17T05:06:07.883Z,972.19
2016-12-17T05:07:07.630Z,972.24
2016-12-17T05:08:08.272Z,972.26
2016-12-17T05:09:08.032Z,972.29
2016-12-17T05:10:07.775Z,972.26
2016-12-17T05:11:07.620Z,972.25
2016-12-17T05:12:07.609Z,972.27
2016-12-17T05:13:08.327Z,972.30
2016-12-17T05:14:08.076Z,972.30
2016-12-17T05:15:08.109Z,972.31
2016-12-17T05:16:11.392Z,972.35
2016-12-17T05:17:08.938Z,972.36
2016-12-17T05:18:08.676Z,972.40
2016-12-17T05:19:14.690Z,972.36
2016-12-17T05:20:08.551Z,972.38
2016-12-17T05:21:09.285Z,972.43
2016-12-17T05:22:08.725Z,972.43
2016-12-17T05:23:09.538Z,972.45
2016-12-17T05:24:11.077Z,972.45
2016-12-17T05:25:10.341Z,972.44
2016-12-17T05:26:14.112Z,972.48
2016-12-17T05:27:08.523Z,972.47
2016-12-17T05:28:09.594Z,972.47
2016-12-17T05:29:08.298Z,972.50
2016-12-17T05:30:09.039Z,972.53
2016-12-17T05:31:07.802Z,972.57
2016-12-17T05:32:08.563Z,972.56
2016-12-17T05:33:07.628Z,972.57
2016-12-17T05:34:08.585Z,972.61
2016-12-17T05:35:08.336Z,972.61
2016-12-17T05:36:08.035Z,972.62
2016-12-17T05:37:07.839Z,972.69
2016-12-17T05:38:07.548Z,972.65
2016-12-17T05:39:08.230Z,972.64
2016-12-17T05:40:07.861Z,972.68
2016-12-17T05:41:08.063Z,972.72
2016-12-17T05:42:07.847Z,972.68
2016-12-17T05:43:07.618Z,972.68
2016-12-17T05:44:08.265Z,972.75
2016-12-17T05:45:08.075Z,972.72
2016-12-17T05:46:07.850Z,972.75
2016-12-17T05:47:07.686Z,972.75
2016-12-17T05:48:08.389Z,972.76
2016-12-17T05:49:08.055Z,972.80
2016-12-17T05:50:07.810Z,972.78
2016-12-17T05:51:07.453Z,972.76
2016-12-17T05:52:08.076Z,972.82
2016-12-17T05:53:07.888Z,972.80
2016-12-17T05:54:07.670Z,972.87
2016-12-17T05:55:08.359Z,972.83
2016-12-17T05:56:08.021Z,972.81
2016-12-17T05:57:07.788Z,972.88
2016-12-17T05:58:07.496Z,972.82
2016-12-17T05:59:08.195Z,972.88
2016-12-17T06:00:07.897Z,972.87
2016-12-17T06:01:07.850Z,972.91
2016-12-17T06:02:07.560Z,972.93
2016-12-17T06:03:08.245Z,972.94
2016-12-17T06:04:08.188Z,972.93
2016-12-17T06:05:07.902Z,972.92
2016-12-17T06:06:07.568Z,972.96
2016-12-17T06:07:08.259Z,973.01
2016-12-17T06:08:07.950Z,973.03
2016-12-17T06:09:07.634Z,973.03
2016-12-17T06:10:08.375Z,973.10
2016-12-17T06:11:08.270Z,973.04
2016-12-17T06:12:07.956Z,973.05
2016-12-17T06:13:08.398Z,973.12
2016-12-17T06:14:08.121Z,973.14
2016-12-17T06:15:08.024Z,973.13
2016-12-17T06:16:07.806Z,973.18
2016-12-17T06:17:07.708Z,973.14
2016-12-17T06:18:08.454Z,973.17
2016-12-17T06:19:08.121Z,973.14
2016-12-17T06:20:07.795Z,973.21
2016-12-17T06:21:07.620Z,973.18
2016-12-17T06:22:08.272Z,973.25
2016-12-17T06:23:08.011Z,973.21
2016-12-17T06:24:07.799Z,973.22
2016-12-17T06:25:07.640Z,973.21
2016-12-17T06:26:08.293Z,973.26
2016-12-17T06:27:08.065Z,973.20
2016-12-17T06:28:07.772Z,973.19
2016-12-17T06:29:07.614Z,973.21
2016-12-17T06:30:09.498Z,973.16
2016-12-17T06:31:08.219Z,973.20
2016-12-17T06:32:07.990Z,973.21
2016-12-17T06:33:07.725Z,973.22
2016-12-17T06:34:08.460Z,973.21
2016-12-17T06:35:08.294Z,973.21
2016-12-17T06:36:08.027Z,973.22
2016-12-17T06:37:07.845Z,973.23
2016-12-17T06:38:07.588Z,973.26
2016-12-17T06:39:08.465Z,973.25
2016-12-17T06:40:08.266Z,973.27
2016-12-17T06:41:08.104Z,973.23
2016-12-17T06:42:07.736Z,973.28
2016-12-17T06:43:08.497Z,973.27
2016-12-17T06:44:08.196Z,973.30
2016-12-17T06:45:07.740Z,973.30
2016-12-17T06:46:07.521Z,973.35
2016-12-17T06:47:08.188Z,973.39
2016-12-17T06:48:07.937Z,973.39
2016-12-17T06:49:07.726Z,973.44
2016-12-17T06:50:08.404Z,973.47
2016-12-17T06:51:13.719Z,973.50
2016-12-17T06:52:07.512Z,973.48
2016-12-17T06:53:08.155Z,973.50
2016-12-17T06:54:07.949Z,973.52
2016-12-17T06:55:07.648Z,973.57
2016-12-17T06:56:09.460Z,973.58
2016-12-17T06:57:08.390Z,973.60
2016-12-17T06:58:08.006Z,973.60
2016-12-17T06:59:07.928Z,973.63
2016-12-17T07:00:08.580Z,973.65
2016-12-17T07:01:08.471Z,973.58
2016-12-17T07:02:08.136Z,973.67
2016-12-17T07:03:07.844Z,973.63
2016-12-17T07:04:07.776Z,973.73
2016-12-17T07:05:07.547Z,973.60
2016-12-17T07:06:08.237Z,973.63
2016-12-17T07:07:07.965Z,973.66
2016-12-17T07:08:07.690Z,973.65
2016-12-17T07:09:08.429Z,973.68
2016-12-17T07:10:08.147Z,973.70
2016-12-17T07:11:07.949Z,973.74
2016-12-17T07:12:08.727Z,973.72
2016-12-17T07:13:08.375Z,973.72
2016-12-17T07:14:08.028Z,973.78
2016-12-17T07:15:07.749Z,973.72
2016-12-17T07:16:08.419Z,973.81
2016-12-17T07:17:08.211Z,973.81
2016-12-17T07:18:08.012Z,973.80
2016-12-17T07:19:07.717Z,973.82
2016-12-17T07:20:08.521Z,973.83
2016-12-17T07:21:08.149Z,973.83
2016-12-17T07:22:08.010Z,973.84
2016-12-17T07:23:07.722Z,973.81
2016-12-17T07:24:08.413Z,973.81
2016-12-17T07:25:08.175Z,973.84
2016-12-17T07:26:07.898Z,973.86
2016-12-17T07:27:07.588Z,973.86
2016-12-17T07:28:07.609Z,973.83
2016-12-17T07:29:08.323Z,973.84
2016-12-17T07:30:08.167Z,973.90
2016-12-17T07:31:08.020Z,973.81
2016-12-17T07:32:08.541Z,973.83
2016-12-17T07:33:08.155Z,973.80
2016-12-17T07:34:07.862Z,973.83
2016-12-17T07:35:07.654Z,973.86
2016-12-17T07:36:08.342Z,973.86
2016-12-17T07:37:08.028Z,973.87
2016-12-17T07:38:07.748Z,973.93
2016-12-17T07:39:08.429Z,973.92
2016-12-17T07:40:07.698Z,974.00
2016-12-17T07:41:08.536Z,973.98
2016-12-17T07:42:08.296Z,973.96
2016-12-17T07:43:08.166Z,973.97
2016-12-17T07:44:07.879Z,973.96
2016-12-17T07:45:07.729Z,974.00
2016-12-17T07:46:08.389Z,974.02
2016-12-17T07:47:08.201Z,973.97
2016-12-17T07:48:07.917Z,974.03
2016-12-17T07:49:07.830Z,974.01
2016-12-17T07:50:07.694Z,974.02
2016-12-17T07:51:08.463Z,974.04
2016-12-17T07:52:08.252Z,974.10
2016-12-17T07:53:07.969Z,974.11
2016-12-17T07:54:07.721Z,974.14
2016-12-17T07:55:08.189Z,974.11
2016-12-17T07:56:08.466Z,974.06
2016-12-17T07:57:08.129Z,974.11
2016-12-17T07:58:08.442Z,974.12
2016-12-17T07:59:08.184Z,974.10
2016-12-17T08:00:08.037Z,974.10
2016-12-17T08:01:07.802Z,974.12
2016-12-17T08:02:07.720Z,974.04
2016-12-17T08:03:08.399Z,974.17
2016-12-17T08:04:08.246Z,974.07
2016-12-17T08:05:08.010Z,974.12
2016-12-17T08:06:07.858Z,974.09
2016-12-17T08:07:07.652Z,974.11
2016-12-17T08:08:08.310Z,974.15
2016-12-17T08:09:13.727Z,974.10
2016-12-17T08:10:07.577Z,974.03
2016-12-17T08:11:08.360Z,974.13
2016-12-17T08:12:07.963Z,974.10
2016-12-17T08:13:07.779Z,974.13
2016-12-17T08:14:08.050Z,974.02
2016-12-17T08:15:07.825Z,974.08
2016-12-17T08:16:07.582Z,974.07
2016-12-17T08:17:09.148Z,974.07
2016-12-17T08:18:07.732Z,974.05
2016-12-17T08:19:08.427Z,974.10
2016-12-17T08:20:08.209Z,974.13
2016-12-17T08:21:07.929Z,974.14
2016-12-17T08:22:07.793Z,974.20
2016-12-17T08:23:07.625Z,974.21
2016-12-17T08:24:08.313Z,974.25
2016-12-17T08:25:08.090Z,974.21
2016-12-17T08:26:07.879Z,974.27
2016-12-17T08:27:07.652Z,974.28
2016-12-17T08:28:08.398Z,974.27
2016-12-17T08:29:08.165Z,974.30
2016-12-17T08:30:08.018Z,974.32
2016-12-17T08:31:07.773Z,974.33
2016-12-17T08:32:08.253Z,974.35
2016-12-17T08:33:08.358Z,974.34
2016-12-17T08:34:08.817Z,974.37
2016-12-17T08:35:07.642Z,974.40
2016-12-17T08:36:08.383Z,974.41
2016-12-17T08:37:07.804Z,974.40
2016-12-17T08:38:08.541Z,974.42
2016-12-17T08:39:08.237Z,974.45
2016-12-17T08:40:08.009Z,974.45
2016-12-17T08:41:08.046Z,974.43
2016-12-17T08:42:07.909Z,974.46
2016-12-17T08:43:07.690Z,974.44
2016-12-17T08:44:08.454Z,974.43
2016-12-17T08:45:08.255Z,974.36
2016-12-17T08:46:07.966Z,974.42
2016-12-17T08:47:07.694Z,974.48
2016-12-17T08:48:08.361Z,974.44
2016-12-17T08:49:08.101Z,974.39
2016-12-17T08:50:07.908Z,974.40
2016-12-17T08:51:08.391Z,974.43
2016-12-17T08:52:08.339Z,974.40
2016-12-17T08:53:08.177Z,974.48
2016-12-17T08:54:07.963Z,974.50
2016-12-17T08:55:07.843Z,974.51
2016-12-17T08:56:07.844Z,974.49
2016-12-17T08:57:07.658Z,974.52
2016-12-17T08:58:08.382Z,974.49
2016-12-17T08:59:08.139Z,974.54
2016-12-17T09:00:07.885Z,974.50
2016-12-17T09:01:07.692Z,974.44
2016-12-17T09:02:08.452Z,974.49
2016-12-17T09:03:08.120Z,974.49
2016-12-17T09:04:07.873Z,974.51
2016-12-17T09:05:07.619Z,974.55
2016-12-17T09:06:08.466Z,974.56
2016-12-17T09:07:08.176Z,974.53
2016-12-17T09:08:07.771Z,974.49
2016-12-17T09:09:07.554Z,974.52
2016-12-17T09:10:08.340Z,974.49
2016-12-17T09:11:08.318Z,974.47
2016-12-17T09:12:08.080Z,974.54
2016-12-17T09:13:07.898Z,974.55
2016-12-17T09:14:08.457Z,974.56
2016-12-17T09:15:08.200Z,974.57
2016-12-17T09:16:08.043Z,974.59
2016-12-17T09:17:08.972Z,974.64
2016-12-17T09:18:07.741Z,974.62
2016-12-17T09:19:12.079Z,974.68
2016-12-17T09:20:08.453Z,974.65
2016-12-17T09:21:08.333Z,974.63
2016-12-17T09:22:08.994Z,974.63
2016-12-17T09:23:08.167Z,974.60
2016-12-17T09:24:07.542Z,974.59
2016-12-17T09:25:08.278Z,974.57
2016-12-17T09:26:07.972Z,974.59
2016-12-17T09:27:07.903Z,974.61
2016-12-17T09:28:07.625Z,974.54
2016-12-17T09:29:08.644Z,974.56
2016-12-17T09:30:09.223Z,974.56
2016-12-17T09:31:07.862Z,974.53
2016-12-17T09:32:07.573Z,974.57
2016-12-17T09:33:08.413Z,974.58
2016-12-17T09:34:08.699Z,974.58
2016-12-17T09:35:08.413Z,974.59
2016-12-17T09:36:08.184Z,974.60
2016-12-17T09:37:07.949Z,974.56
2016-12-17T09:38:07.866Z,974.60
2016-12-17T09:39:07.725Z,974.64
2016-12-17T09:40:08.482Z,974.63
2016-12-17T09:41:08.366Z,974.66
2016-12-17T09:42:08.264Z,974.63
2016-12-17T09:43:07.957Z,974.64
2016-12-17T09:44:07.821Z,974.62
2016-12-17T09:45:07.575Z,974.61
2016-12-17T09:46:08.309Z,974.58
2016-12-17T09:47:08.021Z,974.63
2016-12-17T09:48:08.893Z,974.62
2016-12-17T09:49:07.583Z,974.67
2016-12-17T09:50:08.354Z,974.63
2016-12-17T09:51:08.102Z,974.59
2016-12-17T09:52:07.939Z,974.60
2016-12-17T09:53:07.710Z,974.61
2016-12-17T09:54:08.582Z,974.59
2016-12-17T09:55:08.220Z,974.60
2016-12-17T09:56:07.980Z,974.58
2016-12-17T09:57:07.901Z,974.57
2016-12-17T09:58:07.584Z,974.55
2016-12-17T09:59:08.246Z,974.54
2016-12-17T10:00:07.969Z,974.46
2016-12-17T10:01:07.802Z,974.54
2016-12-17T10:02:07.671Z,974.51
2016-12-17T10:03:08.284Z,974.47
2016-12-17T10:04:39.770Z,974.50
2016-12-17T10:05:07.637Z,974.53
2016-12-17T10:06:08.264Z,974.52
2016-12-17T10:07:08.075Z,974.56
2016-12-17T10:08:07.929Z,974.53
2016-12-17T10:09:07.840Z,974.52
2016-12-17T10:10:08.402Z,974.48
2016-12-17T10:11:08.428Z,974.54
2016-12-17T10:12:08.262Z,974.50
2016-12-17T10:13:08.723Z,974.51
2016-12-17T10:14:08.113Z,974.53
2016-12-17T10:15:07.912Z,974.51
2016-12-17T10:16:07.821Z,974.52
2016-12-17T10:17:07.710Z,974.51
2016-12-17T10:18:08.364Z,974.53
2016-12-17T10:19:09.033Z,974.51
2016-12-17T10:20:07.856Z,974.52
2016-12-17T10:21:07.414Z,974.54
2016-12-17T10:22:07.641Z,974.53
2016-12-17T10:23:08.354Z,974.53
2016-12-17T10:24:08.072Z,974.51
2016-12-17T10:25:07.877Z,974.45
2016-12-17T10:26:07.676Z,974.45
2016-12-17T10:27:09.656Z,974.43
2016-12-17T10:28:07.619Z,974.42
2016-12-17T10:29:08.284Z,974.43
2016-12-17T10:30:08.063Z,974.40
2016-12-17T10:31:07.844Z,974.37
2016-12-17T10:32:08.121Z,974.38
2016-12-17T10:33:07.920Z,974.39
2016-12-17T10:34:07.663Z,974.34
2016-12-17T10:35:08.312Z,974.39
2016-12-17T10:36:08.006Z,974.40
2016-12-17T10:37:07.803Z,974.44
2016-12-17T10:38:07.705Z,974.38
2016-12-17T10:39:08.496Z,974.42
2016-12-17T10:40:08.169Z,974.38
2016-12-17T10:41:08.116Z,974.40
2016-12-17T10:42:08.415Z,974.47
2016-12-17T10:43:08.229Z,974.40
2016-12-17T10:44:07.925Z,974.40
2016-12-17T10:45:07.725Z,974.35
2016-12-17T10:46:08.394Z,974.40
2016-12-17T10:47:08.200Z,974.36
2016-12-17T10:48:08.049Z,974.37
2016-12-17T10:49:07.837Z,974.32
2016-12-17T10:50:07.739Z,974.34
2016-12-17T10:51:08.358Z,974.32
2016-12-17T10:52:08.133Z,974.31
2016-12-17T10:53:07.994Z,974.36
2016-12-17T10:54:07.824Z,974.27
2016-12-17T10:55:07.573Z,974.25
2016-12-17T10:56:08.010Z,974.23
2016-12-17T10:57:08.475Z,974.25
2016-12-17T10:58:08.287Z,974.22
2016-12-17T10:59:08.024Z,974.21
2016-12-17T11:00:07.724Z,974.27
2016-12-17T11:01:08.530Z,974.23
2016-12-17T11:02:08.293Z,974.27
2016-12-17T11:03:08.956Z,974.23
2016-12-17T11:04:08.497Z,974.24
2016-12-17T11:05:08.329Z,974.25
2016-12-17T11:06:08.120Z,974.30
2016-12-17T11:07:36.478Z,974.28
2016-12-17T11:08:30.448Z,974.30
2016-12-17T11:09:22.856Z,974.35
2016-12-17T11:10:28.973Z,974.25
2016-12-17T11:11:07.978Z,974.29
2016-12-17T11:12:07.768Z,974.26
2016-12-17T11:13:07.689Z,974.27
2016-12-17T11:14:08.237Z,974.25
2016-12-17T11:15:10.438Z,974.21
2016-12-17T11:16:08.311Z,974.21
2016-12-17T11:17:08.957Z,974.22
2016-12-17T11:18:08.189Z,974.21
2016-12-17T11:19:07.877Z,974.23
2016-12-17T11:21:08.835Z,974.23
2016-12-17T11:22:08.903Z,974.21
2016-12-17T11:23:08.115Z,974.24
2016-12-17T11:24:07.953Z,974.22
2016-12-17T11:25:07.791Z,974.24
2016-12-17T11:26:07.642Z,974.20
2016-12-17T11:27:08.447Z,974.19
2016-12-17T11:28:07.801Z,974.16
2016-12-17T11:29:07.736Z,974.14
2016-12-17T11:30:08.547Z,974.12
2016-12-17T11:31:09.450Z,974.15
2016-12-17T11:32:08.296Z,974.14
2016-12-17T11:33:08.040Z,974.10
2016-12-17T11:34:07.879Z,974.14
2016-12-17T11:35:08.903Z,974.16
2016-12-17T11:36:08.011Z,974.16
2016-12-17T11:37:07.743Z,974.20
2016-12-17T11:38:08.521Z,974.17
2016-12-17T11:39:08.369Z,974.20
2016-12-17T11:40:08.148Z,974.21
2016-12-17T11:41:14.407Z,974.17
2016-12-17T11:42:08.060Z,974.17
2016-12-17T11:43:07.770Z,974.20
2016-12-17T11:44:07.733Z,974.15
2016-12-17T11:45:08.453Z,974.17
2016-12-17T11:46:08.104Z,974.13
2016-12-17T11:47:07.906Z,974.10
2016-12-17T11:48:07.732Z,974.10
2016-12-17T11:49:07.613Z,974.07
2016-12-17T11:50:07.784Z,974.06
2016-12-17T11:51:07.742Z,974.07
2016-12-17T11:52:08.463Z,974.11
2016-12-17T11:53:08.249Z,974.09
2016-12-17T11:54:07.977Z,974.06
2016-12-17T11:55:07.431Z,974.03
2016-12-17T11:56:09.120Z,974.04
2016-12-17T11:57:07.871Z,974.06
2016-12-17T11:58:08.328Z,974.05
2016-12-17T11:59:08.057Z,974.08
2016-12-17T12:00:20.173Z,974.08
2016-12-17T12:01:13.421Z,974.05
2016-12-17T12:02:09.340Z,974.06
2016-12-17T12:03:08.083Z,974.05
2016-12-17T12:04:07.811Z,974.04
2016-12-17T12:05:07.602Z,974.07
2016-12-17T12:06:08.443Z,974.05
2016-12-17T12:07:08.182Z,974.09
2016-12-17T12:08:22.907Z,974.05
2016-12-17T12:09:08.249Z,974.03
2016-12-17T12:10:07.977Z,974.05
2016-12-17T12:11:07.901Z,974.09
2016-12-17T12:12:07.751Z,974.06
2016-12-17T12:13:08.409Z,974.07
2016-12-17T12:14:08.095Z,974.10
2016-12-17T12:15:07.896Z,974.10
2016-12-17T12:16:07.743Z,974.11
2016-12-17T12:17:08.507Z,974.08
2016-12-17T12:18:08.400Z,974.09
2016-12-17T12:19:08.328Z,974.06
2016-12-17T12:20:08.179Z,974.00
2016-12-17T12:21:08.075Z,974.02
2016-12-17T12:22:07.868Z,974.03
2016-12-17T12:23:13.271Z,973.95
2016-12-17T12:24:08.086Z,974.00
2016-12-17T12:25:07.934Z,974.07
2016-12-17T12:26:07.723Z,974.02
2016-12-17T12:27:08.355Z,973.97
2016-12-17T12:28:08.106Z,974.02
2016-12-17T12:29:07.797Z,974.03